createdAt,value
2019-02-20T00:01:05.631Z,7.30
2019-02-20T00:03:44.471Z,7.60
2019-02-20T00:06:18.564Z,8.33
2019-02-20T00:08:53.019Z,6.70
2019-02-20T00:11:28.223Z,7.70
2019-02-20T00:14:03.219Z,8.77
2019-02-20T00:16:36.786Z,8.83
2019-02-20T00:19:11.225Z,8.90
2019-02-20T00:21:44.976Z,7.07
2019-02-20T00:24:18.592Z,7.37
2019-02-20T00:26:51.966Z,8.07
2019-02-20T00:29:24.735Z,10.87
2019-02-20T00:32:00.020Z,12.20
2019-02-20T00:34:33.719Z,9.47
2019-02-20T00:37:07.634Z,7.37
2019-02-20T00:39:43.578Z,6.07
2019-02-20T00:42:16.874Z,10.37
2019-02-20T00:44:51.313Z,9.20
2019-02-20T00:47:45.760Z,13.03
2019-02-20T00:50:22.153Z,8.87
2019-02-20T00:53:03.226Z,9.00
2019-02-20T00:55:36.930Z,10.33
2019-02-20T00:58:10.050Z,8.23
2019-02-20T01:00:44.955Z,9.13
2019-02-20T01:03:23.057Z,8.23
2019-02-20T01:05:56.759Z,7.27
2019-02-20T01:08:31.389Z,10.50
2019-02-20T01:11:05.611Z,8.60
2019-02-20T01:13:39.920Z,11.07
2019-02-20T01:16:14.557Z,13.33
2019-02-20T01:18:49.888Z,11.27
2019-02-20T01:21:23.815Z,8.20
2019-02-20T01:23:57.409Z,9.67
2019-02-20T01:26:29.957Z,11.33
2019-02-20T01:29:03.995Z,11.33
2019-02-20T01:31:37.798Z,10.30
2019-02-20T01:34:12.624Z,10.60
2019-02-20T01:36:46.145Z,13.27
2019-02-20T01:39:19.021Z,8.57
2019-02-20T01:41:53.327Z,6.70
2019-02-20T01:44:27.030Z,10.13
2019-02-20T01:47:03.007Z,7.97
2019-02-20T01:49:37.514Z,9.43
2019-02-20T01:52:11.661Z,9.23
2019-02-20T01:54:47.282Z,6.10
2019-02-20T01:57:21.078Z,7.63
2019-02-20T01:59:54.481Z,5.30
2019-02-20T02:02:28.852Z,7.90
2019-02-20T02:05:02.669Z,7.33
2019-02-20T02:07:36.002Z,8.17
2019-02-20T02:10:12.608Z,7.57
2019-02-20T02:12:48.101Z,8.13
2019-02-20T02:15:24.829Z,8.67
2019-02-20T02:17:58.805Z,7.20
2019-02-20T02:20:33.432Z,6.57
2019-02-20T02:23:07.030Z,8.03
2019-02-20T02:25:41.958Z,6.47
2019-02-20T02:28:15.764Z,5.80
2019-02-20T02:30:53.546Z,6.50
2019-02-20T02:33:28.190Z,5.40
2019-02-20T02:36:01.395Z,7.60
2019-02-20T02:38:34.210Z,4.37
2019-02-20T02:41:09.104Z,5.07
2019-02-20T02:43:43.519Z,6.07
2019-02-20T02:46:19.293Z,5.00
2019-02-20T02:48:55.644Z,5.07
2019-02-20T02:51:28.741Z,7.60
2019-02-20T02:54:02.170Z,9.77
2019-02-20T02:56:35.839Z,4.73
2019-02-20T02:59:08.822Z,9.57
2019-02-20T03:01:44.273Z,5.83
2019-02-20T03:04:19.106Z,7.13
2019-02-20T03:06:53.832Z,4.00
2019-02-20T03:09:30.289Z,9.40
2019-02-20T03:12:04.517Z,7.37
2019-02-20T03:14:38.622Z,8.43
2019-02-20T03:17:12.750Z,8.13
2019-02-20T03:19:45.846Z,5.77
2019-02-20T03:22:23.433Z,6.40
2019-02-20T03:24:57.527Z,6.07
2019-02-20T03:27:30.922Z,7.80
2019-02-20T03:30:05.408Z,5.70
2019-02-20T03:32:38.017Z,9.43
2019-02-20T03:35:11.118Z,5.93
2019-02-20T03:37:45.029Z,9.40
2019-02-20T03:40:17.850Z,9.10
2019-02-20T03:42:50.691Z,7.53
2019-02-20T03:45:23.213Z,6.80
2019-02-20T03:47:55.836Z,13.67
2019-02-20T03:50:28.525Z,7.47
2019-02-20T03:53:01.199Z,9.30
2019-02-20T03:55:33.894Z,7.00
2019-02-20T03:58:06.263Z,5.77
2019-02-20T04:00:38.737Z,8.60
2019-02-20T04:03:11.225Z,9.57
2019-02-20T04:05:43.523Z,7.87
2019-02-20T04:08:15.924Z,5.20
2019-02-20T04:10:48.455Z,7.67
2019-02-20T04:13:20.948Z,13.60
2019-02-20T04:15:53.454Z,11.73
2019-02-20T04:18:25.851Z,7.73
2019-02-20T04:20:58.640Z,7.17
2019-02-20T04:23:31.145Z,8.47
2019-02-20T04:26:05.562Z,8.17
2019-02-20T04:28:38.110Z,9.27
2019-02-20T04:31:10.581Z,9.50
2019-02-20T04:33:42.958Z,8.87
2019-02-20T04:36:15.498Z,8.40
2019-02-20T04:38:47.908Z,10.20
2019-02-20T04:41:20.555Z,6.57
2019-02-20T04:43:53.163Z,8.27
2019-02-20T04:46:25.596Z,8.93
2019-02-20T04:48:57.936Z,10.97
2019-02-20T04:51:30.358Z,12.77
2019-02-20T04:54:12.689Z,6.93
2019-02-20T04:56:38.909Z,10.87
2019-02-20T04:59:12.241Z,11.87
2019-02-20T05:01:44.651Z,10.93
2019-02-20T05:04:17.161Z,9.23
2019-02-20T05:06:49.639Z,12.20
2019-02-20T05:09:22.145Z,13.40
2019-02-20T05:11:55.774Z,11.40
2019-02-20T05:14:28.285Z,8.27
2019-02-20T05:17:00.764Z,8.90
2019-02-20T05:19:33.283Z,11.63
2019-02-20T05:22:05.717Z,19.80
2019-02-20T05:24:38.113Z,15.17
2019-02-20T05:27:10.388Z,21.00
2019-02-20T05:29:42.577Z,14.13
2019-02-20T05:32:15.168Z,13.37
2019-02-20T05:34:48.577Z,9.57
2019-02-20T05:37:22.613Z,10.37
2019-02-20T05:39:56.073Z,10.87
2019-02-20T05:42:29.919Z,16.30
2019-02-20T05:45:03.244Z,9.47
2019-02-20T05:47:36.198Z,11.00
2019-02-20T05:50:13.650Z,14.20
2019-02-20T05:52:50.147Z,20.73
2019-02-20T05:55:25.715Z,17.63
2019-02-20T05:58:00.028Z,13.93
2019-02-20T06:00:32.910Z,13.13
2019-02-20T06:03:11.918Z,15.97
2019-02-20T06:05:46.769Z,14.83
2019-02-20T06:08:21.195Z,10.70
2019-02-20T06:10:54.665Z,22.00
2019-02-20T06:13:27.061Z,13.00
2019-02-20T06:16:01.381Z,13.10
2019-02-20T06:18:33.926Z,14.97
2019-02-20T06:21:06.258Z,14.23
2019-02-20T06:23:38.641Z,14.70
2019-02-20T06:26:14.163Z,14.77
2019-02-20T06:28:47.769Z,18.10
2019-02-20T06:31:21.105Z,15.10
2019-02-20T06:33:53.663Z,14.20
2019-02-20T06:36:28.759Z,18.03
2019-02-20T06:39:01.528Z,13.80
2019-02-20T06:41:39.259Z,14.63
2019-02-20T06:44:09.932Z,13.20
2019-02-20T06:46:43.592Z,13.93
2019-02-20T06:49:15.886Z,12.43
2019-02-20T06:51:48.216Z,15.67
2019-02-20T06:54:20.691Z,14.47
2019-02-20T06:56:53.098Z,18.67
2019-02-20T06:59:26.828Z,25.57
2019-02-20T07:01:59.166Z,21.13
2019-02-20T07:04:31.601Z,28.07
2019-02-20T07:07:08.611Z,21.93
2019-02-20T07:09:42.674Z,13.17
2019-02-20T07:12:16.929Z,16.90
2019-02-20T07:14:54.205Z,13.47
2019-02-20T07:17:34.121Z,22.20
2019-02-20T07:20:08.486Z,16.53
2019-02-20T07:22:48.923Z,17.93
2019-02-20T07:25:23.024Z,18.53
2019-02-20T07:27:57.100Z,17.97
2019-02-20T07:30:29.576Z,20.10
2019-02-20T07:33:02.123Z,19.47
2019-02-20T07:35:34.532Z,13.70
2019-02-20T07:38:06.928Z,18.97
2019-02-20T07:40:39.363Z,15.87
2019-02-20T07:43:11.642Z,19.10
2019-02-20T07:45:44.170Z,20.30
2019-02-20T07:48:17.521Z,19.47
2019-02-20T07:50:54.231Z,23.37
2019-02-20T07:53:24.285Z,18.07
2019-02-20T07:55:56.769Z,23.60
2019-02-20T07:58:29.179Z,12.67
2019-02-20T08:01:02.142Z,20.93
2019-02-20T08:03:34.448Z,13.80
2019-02-20T08:06:06.754Z,17.37
2019-02-20T08:08:39.237Z,20.20
2019-02-20T08:11:12.315Z,17.47
2019-02-20T08:13:44.759Z,17.50
2019-02-20T08:16:18.188Z,15.80
2019-02-20T08:18:50.769Z,16.93
2019-02-20T08:21:23.304Z,14.70
2019-02-20T08:23:55.556Z,14.67
2019-02-20T08:26:28.319Z,13.73
2019-02-20T08:29:00.735Z,15.97
2019-02-20T08:31:33.244Z,23.70
2019-02-20T08:36:34.589Z,18.27
2019-02-20T08:39:06.979Z,16.73
2019-02-20T08:41:40.891Z,16.43
2019-02-20T08:44:14.572Z,13.03
2019-02-20T08:46:47.811Z,17.57
2019-02-20T08:49:20.288Z,16.17
2019-02-20T08:51:52.698Z,17.00
2019-02-20T08:54:25.214Z,20.70
2019-02-20T08:56:57.669Z,17.23
2019-02-20T08:59:31.169Z,20.50
2019-02-20T09:02:03.486Z,17.27
2019-02-20T09:04:35.881Z,18.40
2019-02-20T09:07:08.298Z,17.80
2019-02-20T09:09:41.691Z,23.33
2019-02-20T09:12:14.043Z,19.00
2019-02-20T09:14:46.369Z,21.20
2019-02-20T09:17:18.802Z,15.17
2019-02-20T09:19:51.191Z,20.00
2019-02-20T09:22:23.767Z,16.70
2019-02-20T09:24:56.343Z,19.37
2019-02-20T09:27:29.023Z,14.33
2019-02-20T09:30:02.980Z,19.57
2019-02-20T09:32:35.408Z,17.17
2019-02-20T09:35:07.926Z,14.87
2019-02-20T09:37:40.195Z,14.80
2019-02-20T09:40:20.921Z,21.10
2019-02-20T09:42:54.508Z,23.97
2019-02-20T09:45:27.266Z,51.37
2019-02-20T09:47:59.985Z,30.23
2019-02-20T09:50:32.587Z,21.10
2019-02-20T09:53:04.860Z,19.67
2019-02-20T09:55:37.414Z,25.23
2019-02-20T09:58:09.887Z,19.43
2019-02-20T10:00:43.936Z,14.57
2019-02-20T10:03:16.411Z,16.57
2019-02-20T10:05:48.778Z,22.80
2019-02-20T10:08:22.266Z,17.77
2019-02-20T10:10:54.813Z,13.30
2019-02-20T10:13:27.389Z,12.70
2019-02-20T10:15:59.807Z,15.37
2019-02-20T10:18:32.483Z,14.80
2019-02-20T10:21:04.836Z,14.80
2019-02-20T10:23:37.287Z,9.70
2019-02-20T10:26:09.791Z,12.20
2019-02-20T10:28:42.238Z,13.70
2019-02-20T10:31:15.603Z,10.13
2019-02-20T10:33:47.859Z,18.60
2019-02-20T10:36:20.243Z,9.37
2019-02-20T10:38:52.545Z,10.93
2019-02-20T10:41:24.879Z,11.37
2019-02-20T10:43:57.399Z,15.03
2019-02-20T10:46:29.844Z,11.17
2019-02-20T10:49:02.344Z,13.67
2019-02-20T10:51:34.728Z,10.33
2019-02-20T10:54:07.093Z,14.30
2019-02-20T10:56:39.455Z,8.60
2019-02-20T10:59:11.937Z,13.37
2019-02-20T11:01:44.727Z,12.93
2019-02-20T11:04:17.016Z,13.20
2019-02-20T11:06:49.673Z,11.47
2019-02-20T11:09:22.145Z,11.23
2019-02-20T11:11:54.651Z,14.23
2019-02-20T11:14:27.212Z,11.33
2019-02-20T11:16:59.779Z,8.57
2019-02-20T11:19:32.460Z,10.80
2019-02-20T11:22:05.970Z,13.13
2019-02-20T11:24:39.562Z,11.70
2019-02-20T11:27:12.096Z,11.83
2019-02-20T11:29:44.613Z,13.07
2019-02-20T11:32:16.919Z,11.93
2019-02-20T11:34:49.345Z,13.07
2019-02-20T11:37:21.832Z,14.60
2019-02-20T11:39:55.149Z,16.17
2019-02-20T11:42:28.596Z,9.80
2019-02-20T11:45:01.016Z,12.70
2019-02-20T11:47:33.664Z,18.73
2019-02-20T11:50:07.805Z,13.77
2019-02-20T11:52:40.458Z,11.63
2019-02-20T11:55:16.962Z,12.80
2019-02-20T11:57:49.530Z,15.33
2019-02-20T12:00:23.715Z,13.13
2019-02-20T12:02:56.079Z,14.47
2019-02-20T12:05:28.583Z,11.70
2019-02-20T12:08:00.955Z,15.27
2019-02-20T12:10:33.351Z,20.50
2019-02-20T12:13:08.768Z,12.00
2019-02-20T12:15:44.109Z,11.23
2019-02-20T12:18:17.552Z,12.23
2019-02-20T12:20:50.186Z,12.57
2019-02-20T12:23:22.762Z,15.57
2019-02-20T12:25:55.955Z,18.47
2019-02-20T12:28:28.329Z,14.13
2019-02-20T12:31:00.764Z,13.80
2019-02-20T12:33:33.281Z,12.73
2019-02-20T12:36:05.860Z,14.70
2019-02-20T12:38:38.451Z,16.37
2019-02-20T12:41:11.045Z,10.87
2019-02-20T12:43:43.690Z,18.83
2019-02-20T12:46:16.274Z,12.43
2019-02-20T12:48:50.733Z,15.70
2019-02-20T12:51:22.959Z,17.97
2019-02-20T12:53:55.441Z,13.53
2019-02-20T12:56:28.009Z,16.87
2019-02-20T12:59:07.603Z,17.53
2019-02-20T13:01:39.819Z,15.23
2019-02-20T13:04:12.297Z,14.97
2019-02-20T13:06:44.790Z,15.70
2019-02-20T13:09:18.478Z,10.23
2019-02-20T13:11:50.795Z,14.30
2019-02-20T13:14:23.121Z,16.80
2019-02-20T13:16:55.589Z,21.80
2019-02-20T13:19:28.067Z,14.70
2019-02-20T13:22:00.767Z,16.60
2019-02-20T13:24:33.210Z,11.97
2019-02-20T13:27:07.891Z,15.93
2019-02-20T13:29:39.918Z,22.73
2019-02-20T13:32:13.468Z,17.07
2019-02-20T13:34:45.820Z,15.23
2019-02-20T13:37:18.362Z,22.00
2019-02-20T13:39:52.144Z,21.60
2019-02-20T13:42:25.053Z,16.23
2019-02-20T13:44:57.658Z,15.33
2019-02-20T13:47:30.020Z,19.70
2019-02-20T13:50:02.426Z,15.23
2019-02-20T13:52:34.735Z,14.97
2019-02-20T13:55:07.284Z,12.77
2019-02-20T13:57:39.813Z,12.37
2019-02-20T14:00:14.237Z,25.00
2019-02-20T14:02:46.589Z,23.43
2019-02-20T14:05:20.418Z,35.23
2019-02-20T14:07:53.742Z,19.50
2019-02-20T14:10:27.297Z,15.07
2019-02-20T14:12:59.546Z,13.47
2019-02-20T14:15:31.804Z,18.90
2019-02-20T14:18:04.450Z,19.93
2019-02-20T14:20:36.991Z,21.43
2019-02-20T14:23:11.336Z,31.20
2019-02-20T14:25:44.447Z,9.40
2019-02-20T14:28:17.079Z,12.33
2019-02-20T14:30:50.072Z,25.30
2019-02-20T14:33:22.432Z,17.80
2019-02-20T14:35:54.770Z,17.37
2019-02-20T14:38:27.386Z,23.30
2019-02-20T14:40:59.844Z,16.13
2019-02-20T14:43:32.234Z,19.83
2019-02-20T14:46:04.910Z,16.63
2019-02-20T14:48:37.242Z,16.13
2019-02-20T14:51:10.370Z,20.93
2019-02-20T14:53:42.953Z,21.70
2019-02-20T14:56:15.316Z,18.80
2019-02-20T14:58:48.881Z,23.67
2019-02-20T15:01:21.289Z,21.07
2019-02-20T15:03:54.226Z,27.80
2019-02-20T15:06:26.765Z,28.37
2019-02-20T15:09:00.670Z,23.97
2019-02-20T15:11:33.182Z,39.50
2019-02-20T15:14:05.486Z,17.70
2019-02-20T15:16:37.861Z,25.17
2019-02-20T15:19:10.398Z,21.33
2019-02-20T15:21:43.505Z,17.43
2019-02-20T15:24:16.847Z,18.40
2019-02-20T15:26:50.264Z,21.70
2019-02-20T15:29:23.029Z,22.90
2019-02-20T15:31:55.452Z,21.33
2019-02-20T15:34:27.854Z,21.20
2019-02-20T15:37:00.248Z,19.80
2019-02-20T15:39:32.620Z,19.83
2019-02-20T15:42:06.149Z,21.23
2019-02-20T15:44:38.489Z,21.27
2019-02-20T15:47:10.661Z,20.63
2019-02-20T15:49:45.500Z,18.47
2019-02-20T15:52:17.965Z,18.30
2019-02-20T15:54:50.411Z,23.03
2019-02-20T15:57:22.925Z,15.33
2019-02-20T15:59:56.596Z,30.47
2019-02-20T16:02:31.799Z,18.27
2019-02-20T16:05:10.206Z,27.33
2019-02-20T16:07:45.337Z,28.73
2019-02-20T16:10:17.781Z,25.70
2019-02-20T16:12:53.789Z,25.77
2019-02-20T16:15:27.154Z,27.33
2019-02-20T16:18:05.491Z,31.27
2019-02-20T16:20:39.844Z,26.70
2019-02-20T16:23:14.083Z,35.70
2019-02-20T16:25:46.559Z,34.33
2019-02-20T16:28:19.653Z,29.77
2019-02-20T16:30:52.912Z,26.37
2019-02-20T16:33:25.419Z,21.80
2019-02-20T16:35:59.766Z,22.60
2019-02-20T16:38:32.314Z,22.77
2019-02-20T16:41:04.986Z,30.53
2019-02-20T16:43:40.140Z,25.77
2019-02-20T16:46:12.607Z,22.17
2019-02-20T16:48:45.263Z,21.70
2019-02-20T16:51:20.964Z,31.57
2019-02-20T16:53:56.457Z,25.73
2019-02-20T16:56:32.683Z,24.70
2019-02-20T16:59:10.452Z,33.00
2019-02-20T17:01:43.328Z,34.60
2019-02-20T17:04:20.018Z,20.87
2019-02-20T17:06:53.498Z,24.07
2019-02-20T17:09:26.138Z,23.70
2019-02-20T17:12:01.510Z,19.90
2019-02-20T17:14:36.582Z,24.07
2019-02-20T17:17:09.238Z,30.50
2019-02-20T17:19:41.609Z,19.83
2019-02-20T17:22:16.029Z,29.77
2019-02-20T17:24:57.627Z,21.80
2019-02-20T17:27:31.687Z,23.63
2019-02-20T17:30:04.316Z,22.47
2019-02-20T17:32:43.666Z,18.80
2019-02-20T17:35:17.460Z,24.67
2019-02-20T17:37:51.823Z,24.63
2019-02-20T17:40:25.895Z,26.73
2019-02-20T17:42:58.463Z,18.83
2019-02-20T17:45:37.702Z,22.10
2019-02-20T17:48:12.837Z,20.30
2019-02-20T17:50:46.373Z,19.50
2019-02-20T17:53:19.321Z,28.00
2019-02-20T17:55:52.003Z,23.63
2019-02-20T17:58:25.604Z,30.37
2019-02-20T18:01:05.449Z,25.87
2019-02-20T18:03:36.394Z,25.07
2019-02-20T18:06:10.351Z,22.57
2019-02-20T18:08:42.652Z,28.17
2019-02-20T18:11:15.317Z,22.60
2019-02-20T18:13:47.927Z,22.00
2019-02-20T18:16:23.575Z,27.70
2019-02-20T18:18:56.302Z,25.93
2019-02-20T18:21:28.504Z,33.33
2019-02-20T18:24:00.796Z,28.20
2019-02-20T18:26:34.197Z,26.67
2019-02-20T18:29:06.669Z,23.90
2019-02-20T18:31:40.098Z,24.10
2019-02-20T18:34:13.358Z,25.97
2019-02-20T18:36:45.632Z,23.50
2019-02-20T18:39:18.687Z,25.07
2019-02-20T18:41:51.508Z,20.73
2019-02-20T18:44:24.182Z,19.73
2019-02-20T18:46:56.774Z,25.03
2019-02-20T18:49:29.243Z,22.97
2019-02-20T18:52:01.684Z,19.87
2019-02-20T18:54:34.696Z,25.57
2019-02-20T18:57:08.124Z,20.27
2019-02-20T18:59:41.521Z,23.07
2019-02-20T19:02:13.887Z,21.37
2019-02-20T19:04:47.085Z,24.20
2019-02-20T19:07:19.394Z,20.57
2019-02-20T19:09:52.119Z,18.07
2019-02-20T19:12:38.422Z,28.17
2019-02-20T19:15:17.442Z,21.63
2019-02-20T19:18:08.363Z,24.10
2019-02-20T19:20:45.604Z,21.57
2019-02-20T19:23:22.749Z,16.63
2019-02-20T19:26:03.322Z,18.17
2019-02-20T19:28:46.402Z,20.37
2019-02-20T19:31:23.688Z,23.40
2019-02-20T19:34:10.307Z,19.37
2019-02-20T19:37:01.142Z,15.40
2019-02-20T19:39:35.884Z,24.73
2019-02-20T19:42:10.043Z,17.53
2019-02-20T19:44:44.175Z,16.87
2019-02-20T19:47:36.733Z,15.13
2019-02-20T19:50:12.350Z,23.03
2019-02-20T19:52:53.155Z,27.80
2019-02-20T19:55:27.861Z,15.80
2019-02-20T19:58:11.295Z,20.77
2019-02-20T20:00:57.519Z,21.07
2019-02-20T20:03:34.460Z,21.60
2019-02-20T20:06:24.475Z,19.20
2019-02-20T20:09:00.590Z,22.93
2019-02-20T20:11:51.605Z,16.60
2019-02-20T20:14:26.612Z,17.60
2019-02-20T20:17:04.939Z,22.83
2019-02-20T20:19:51.400Z,25.30
2019-02-20T20:22:28.872Z,21.97
2019-02-20T20:25:05.532Z,21.60
2019-02-20T20:27:42.381Z,17.97
2019-02-20T20:30:33.244Z,18.23
2019-02-20T20:33:10.325Z,29.33
2019-02-20T20:35:47.774Z,22.70
2019-02-20T20:38:38.801Z,17.13
2019-02-20T20:41:13.563Z,18.23
2019-02-20T20:43:57.118Z,15.63
2019-02-20T20:46:42.946Z,27.07
2019-02-20T20:49:20.335Z,21.30
2019-02-20T20:52:02.543Z,15.53
2019-02-20T20:54:39.423Z,15.57
2019-02-20T20:57:19.470Z,19.97
2019-02-20T20:59:53.923Z,17.87
2019-02-20T21:02:28.209Z,21.30
2019-02-20T21:05:05.440Z,20.77
2019-02-20T21:07:43.429Z,19.67
2019-02-20T21:10:17.520Z,21.77
2019-02-20T21:13:06.954Z,28.33
2019-02-20T21:15:57.762Z,23.50
2019-02-20T21:18:50.228Z,20.87
2019-02-20T21:21:31.363Z,14.97
2019-02-20T21:24:09.636Z,13.87
2019-02-20T21:26:44.246Z,19.00
2019-02-20T21:29:28.020Z,14.40
2019-02-20T21:32:09.521Z,22.30
2019-02-20T21:34:50.748Z,12.60
2019-02-20T21:37:33.872Z,18.07
2019-02-20T21:40:07.959Z,23.07
2019-02-20T21:42:43.927Z,24.70
2019-02-20T21:45:24.618Z,21.63
2019-02-20T21:47:58.912Z,22.40
2019-02-20T21:50:33.026Z,25.90
2019-02-20T21:53:26.622Z,19.63
2019-02-20T21:56:19.683Z,24.83
2019-02-20T21:59:12.120Z,21.40
2019-02-20T22:01:53.781Z,25.90
2019-02-20T22:04:27.978Z,24.33
2019-02-20T22:07:17.471Z,21.83
2019-02-20T22:10:06.770Z,22.13
2019-02-20T22:12:51.235Z,19.77
2019-02-20T22:15:31.154Z,23.10
2019-02-20T22:18:08.171Z,21.73
2019-02-20T22:20:42.171Z,20.40
2019-02-20T22:23:33.038Z,18.37
2019-02-20T22:26:16.475Z,18.93
2019-02-20T22:28:50.525Z,24.20
2019-02-20T22:31:24.808Z,17.73
2019-02-20T22:34:01.679Z,14.07
2019-02-20T22:36:44.606Z,16.50
2019-02-20T22:39:18.819Z,13.80
2019-02-20T22:42:09.935Z,16.90
2019-02-20T22:45:00.563Z,19.17
2019-02-20T22:47:41.744Z,19.93
2019-02-20T22:50:24.969Z,15.13
2019-02-20T22:52:58.849Z,17.63
2019-02-20T22:55:38.984Z,17.33
2019-02-20T22:58:13.275Z,17.43
2019-02-20T23:00:51.148Z,17.57
2019-02-20T23:03:30.522Z,13.90
2019-02-20T23:06:08.431Z,17.40
2019-02-20T23:08:45.306Z,10.77
2019-02-20T23:11:22.627Z,13.73
2019-02-20T23:13:57.837Z,16.20
2019-02-20T23:16:30.354Z,16.57
2019-02-20T23:19:02.537Z,15.23
2019-02-20T23:21:34.909Z,14.40
2019-02-20T23:24:07.122Z,23.30
2019-02-20T23:26:39.351Z,18.70
2019-02-20T23:29:11.660Z,20.10
2019-02-20T23:31:44.172Z,19.57
2019-02-20T23:34:16.278Z,20.23
2019-02-20T23:36:48.562Z,24.30
2019-02-20T23:39:20.669Z,13.83
2019-02-20T23:41:52.798Z,10.87
2019-02-20T23:44:24.869Z,16.80
2019-02-20T23:46:57.188Z,17.30
2019-02-20T23:49:29.333Z,13.60
2019-02-20T23:52:04.433Z,19.77
2019-02-20T23:54:37.931Z,22.37
2019-02-20T23:57:11.240Z,21.63
2019-02-20T23:59:44.902Z,14.63
